sensor_id;sensor_type;location;lat;lon;timestamp;pressure;altitude;pressure_sealevel;temperature;humidity
64698;BME280;51124;53.394;-6.294;2023-03-03T00:01:35;102320.52;;;17.74;8.62
64698;BME280;51124;53.394;-6.294;2023-03-03T00:04:03;102322.38;;;17.34;8.63
64698;BME280;51124;53.394;-6.294;2023-03-03T00:06:30;102320.37;;;17.27;8.63
64698;BME280;51124;53.394;-6.294;2023-03-03T00:08:58;102318.81;;;17.82;8.74
64698;BME280;51124;53.394;-6.294;2023-03-03T00:11:26;102322.02;;;16.94;8.91
64698;BME280;51124;53.394;-6.294;2023-03-03T00:13:55;102322.17;;;17.92;8.72
64698;BME280;51124;53.394;-6.294;2023-03-03T00:16:26;102321.84;;;17.52;8.68
64698;BME280;51124;53.394;-6.294;2023-03-03T00:18:54;102324.31;;;17.46;8.77
64698;BME280;51124;53.394;-6.294;2023-03-03T00:21:28;102318.92;;;18.07;8.76
64698;BME280;51124;53.394;-6.294;2023-03-03T00:24:02;102320.18;;;17.66;8.62
64698;BME280;51124;53.394;-6.294;2023-03-03T00:26:30;102319.13;;;17.44;8.75
64698;BME280;51124;53.394;-6.294;2023-03-03T00:29:01;102318.89;;;17.22;8.56
64698;BME280;51124;53.394;-6.294;2023-03-03T00:31:32;102317.60;;;17.01;8.68
64698;BME280;51124;53.394;-6.294;2023-03-03T00:34:10;102320.13;;;16.87;8.77
64698;BME280;51124;53.394;-6.294;2023-03-03T00:36:30;102319.67;;;17.04;8.56
64698;BME280;51124;53.394;-6.294;2023-03-03T00:38:52;102324.38;;;20.33;8.91
64698;BME280;51124;53.394;-6.294;2023-03-03T00:41:23;102325.43;;;20.16;9.21
64698;BME280;51124;53.394;-6.294;2023-03-03T00:43:51;102327.72;;;17.54;9.66
64698;BME280;51124;53.394;-6.294;2023-03-03T00:46:20;102328.24;;;17.26;9.53
64698;BME280;51124;53.394;-6.294;2023-03-03T00:48:49;102326.04;;;21.01;9.68
64698;BME280;51124;53.394;-6.294;2023-03-03T00:51:25;102333.47;;;20.36;10.23
64698;BME280;51124;53.394;-6.294;2023-03-03T00:53:44;102334.16;;;19.71;10.63
64698;BME280;51124;53.394;-6.294;2023-03-03T00:56:11;102332.06;;;19.88;10.81
64698;BME280;51124;53.394;-6.294;2023-03-03T00:58:39;102331.88;;;19.19;10.94
64698;BME280;51124;53.394;-6.294;2023-03-03T01:01:07;102331.26;;;19.77;10.89
64698;BME280;51124;53.394;-6.294;2023-03-03T01:03:35;102330.54;;;20.11;10.88
64698;BME280;51124;53.394;-6.294;2023-03-03T01:06:03;102330.05;;;19.75;11.01
64698;BME280;51124;53.394;-6.294;2023-03-03T01:08:31;102330.69;;;19.63;11.08
64698;BME280;51124;53.394;-6.294;2023-03-03T01:11:02;102328.01;;;19.33;11.09
64698;BME280;51124;53.394;-6.294;2023-03-03T01:13:33;102331.69;;;18.77;11.38
64698;BME280;51124;53.394;-6.294;2023-03-03T01:16:03;102329.01;;;19.22;11.25
64698;BME280;51124;53.394;-6.294;2023-03-03T01:18:31;102331.02;;;19.41;11.28
64698;BME280;51124;53.394;-6.294;2023-03-03T01:20:59;102329.88;;;19.10;11.23
64698;BME280;51124;53.394;-6.294;2023-03-03T01:23:27;102323.55;;;19.04;11.42
64698;BME280;51124;53.394;-6.294;2023-03-03T01:25:55;102326.11;;;19.06;11.35
64698;BME280;51124;53.394;-6.294;2023-03-03T01:28:23;102328.66;;;18.55;11.38
64698;BME280;51124;53.394;-6.294;2023-03-03T01:30:51;102330.52;;;19.07;11.39
64698;BME280;51124;53.394;-6.294;2023-03-03T01:33:19;102332.09;;;19.12;11.32
64698;BME280;51124;53.394;-6.294;2023-03-03T01:35:47;102332.68;;;19.14;11.23
64698;BME280;51124;53.394;-6.294;2023-03-03T01:38:15;102333.07;;;18.22;11.32
64698;BME280;51124;53.394;-6.294;2023-03-03T01:40:48;102329.75;;;17.00;10.86
64698;BME280;51124;53.394;-6.294;2023-03-03T01:43:17;102323.50;;;17.08;10.37
64698;BME280;51124;53.394;-6.294;2023-03-03T01:46:54;102323.67;;;17.41;10.09
64698;BME280;51124;53.394;-6.294;2023-03-03T01:48:16;102321.81;;;16.84;10.16
64698;BME280;51124;53.394;-6.294;2023-03-03T01:50:47;102324.08;;;16.44;9.89
64698;BME280;51124;53.394;-6.294;2023-03-03T01:53:18;102325.66;;;16.98;9.77
64698;BME280;51124;53.394;-6.294;2023-03-03T01:55:49;102322.13;;;16.66;9.47
64698;BME280;51124;53.394;-6.294;2023-03-03T01:58:20;102321.34;;;16.47;9.42
64698;BME280;51124;53.394;-6.294;2023-03-03T02:00:52;102320.24;;;16.61;9.30
64698;BME280;51124;53.394;-6.294;2023-03-03T02:03:23;102320.83;;;17.09;9.28
64698;BME280;51124;53.394;-6.294;2023-03-03T02:05:54;102322.54;;;16.45;9.29
64698;BME280;51124;53.394;-6.294;2023-03-03T02:08:29;102320.84;;;16.43;9.27
64698;BME280;51124;53.394;-6.294;2023-03-03T02:10:58;102319.62;;;16.15;9.18
64698;BME280;51124;53.394;-6.294;2023-03-03T02:13:25;102321.24;;;16.49;8.91
64698;BME280;51124;53.394;-6.294;2023-03-03T02:15:53;102320.40;;;16.70;8.98
64698;BME280;51124;53.394;-6.294;2023-03-03T02:18:21;102317.52;;;17.18;8.73
64698;BME280;51124;53.394;-6.294;2023-03-03T02:20:56;102318.62;;;16.78;8.93
64698;BME280;51124;53.394;-6.294;2023-03-03T02:23:19;102319.57;;;16.42;8.95
64698;BME280;51124;53.394;-6.294;2023-03-03T02:26:10;102319.53;;;17.18;8.88
64698;BME280;51124;53.394;-6.294;2023-03-03T02:28:17;102320.44;;;16.21;9.01
64698;BME280;51124;53.394;-6.294;2023-03-03T02:30:45;102321.95;;;16.32;8.92
64698;BME280;51124;53.394;-6.294;2023-03-03T02:33:12;102324.14;;;16.49;8.80
64698;BME280;51124;53.394;-6.294;2023-03-03T02:35:41;102326.03;;;16.73;8.75
64698;BME280;51124;53.394;-6.294;2023-03-03T02:38:15;102325.26;;;16.51;8.75
64698;BME280;51124;53.394;-6.294;2023-03-03T02:40:39;102327.51;;;16.85;8.77
64698;BME280;51124;53.394;-6.294;2023-03-03T02:43:09;102331.93;;;16.62;8.77
64698;BME280;51124;53.394;-6.294;2023-03-03T02:45:43;102332.82;;;16.31;8.75
64698;BME280;51124;53.394;-6.294;2023-03-03T02:48:10;102336.68;;;16.51;8.82
64698;BME280;51124;53.394;-6.294;2023-03-03T02:50:38;102334.25;;;16.33;8.70
64698;BME280;51124;53.394;-6.294;2023-03-03T02:53:05;102333.83;;;16.42;8.83
64698;BME280;51124;53.394;-6.294;2023-03-03T02:55:32;102333.03;;;16.28;8.87
64698;BME280;51124;53.394;-6.294;2023-03-03T02:57:59;102331.05;;;16.89;8.71
64698;BME280;51124;53.394;-6.294;2023-03-03T03:00:27;102330.63;;;16.74;8.77
64698;BME280;51124;53.394;-6.294;2023-03-03T03:02:54;102328.09;;;16.15;8.85
64698;BME280;51124;53.394;-6.294;2023-03-03T03:05:22;102330.97;;;16.72;8.77
64698;BME280;51124;53.394;-6.294;2023-03-03T03:07:49;102331.68;;;17.03;8.77
64698;BME280;51124;53.394;-6.294;2023-03-03T03:10:17;102334.32;;;16.80;8.77
64698;BME280;51124;53.394;-6.294;2023-03-03T03:12:44;102332.75;;;16.99;8.88
64698;BME280;51124;53.394;-6.294;2023-03-03T03:15:11;102334.24;;;16.85;8.89
64698;BME280;51124;53.394;-6.294;2023-03-03T03:17:39;102330.00;;;16.39;9.00
64698;BME280;51124;53.394;-6.294;2023-03-03T03:20:07;102332.21;;;17.24;8.82
64698;BME280;51124;53.394;-6.294;2023-03-03T03:22:35;102331.75;;;16.31;9.10
64698;BME280;51124;53.394;-6.294;2023-03-03T03:25:02;102327.07;;;15.98;8.89
64698;BME280;51124;53.394;-6.294;2023-03-03T03:27:30;102325.19;;;17.36;8.54
64698;BME280;51124;53.394;-6.294;2023-03-03T03:29:57;102326.75;;;16.23;8.85
64698;BME280;51124;53.394;-6.294;2023-03-03T03:32:25;102328.40;;;16.98;8.77
64698;BME280;51124;53.394;-6.294;2023-03-03T03:34:52;102329.15;;;19.59;8.70
64698;BME280;51124;53.394;-6.294;2023-03-03T03:37:20;102332.46;;;19.59;9.25
64698;BME280;51124;53.394;-6.294;2023-03-03T03:39:47;102334.14;;;18.28;9.72
64698;BME280;51124;53.394;-6.294;2023-03-03T03:42:15;102332.62;;;17.11;9.73
64698;BME280;51124;53.394;-6.294;2023-03-03T03:44:43;102332.95;;;20.30;9.69
64698;BME280;51124;53.394;-6.294;2023-03-03T03:47:10;102329.60;;;20.19;10.17
64698;BME280;51124;53.394;-6.294;2023-03-03T03:49:38;102331.62;;;19.96;10.41
64698;BME280;51124;53.394;-6.294;2023-03-03T03:52:06;102331.17;;;18.84;10.87
64698;BME280;51124;53.394;-6.294;2023-03-03T03:54:34;102327.33;;;17.95;11.14
64698;BME280;51124;53.394;-6.294;2023-03-03T03:57:01;102326.19;;;19.40;10.85
64698;BME280;51124;53.394;-6.294;2023-03-03T03:59:29;102324.97;;;18.79;11.04
64698;BME280;51124;53.394;-6.294;2023-03-03T04:01:57;102319.93;;;18.77;11.23
64698;BME280;51124;53.394;-6.294;2023-03-03T04:04:25;102319.11;;;18.77;11.12
64698;BME280;51124;53.394;-6.294;2023-03-03T04:06:53;102316.13;;;19.55;11.06
64698;BME280;51124;53.394;-6.294;2023-03-03T04:09:20;102318.53;;;18.69;11.25
64698;BME280;51124;53.394;-6.294;2023-03-03T04:11:48;102318.26;;;18.49;11.24
64698;BME280;51124;53.394;-6.294;2023-03-03T04:14:16;102320.01;;;18.76;11.12
64698;BME280;51124;53.394;-6.294;2023-03-03T04:16:43;102325.69;;;18.95;11.25
64698;BME280;51124;53.394;-6.294;2023-03-03T04:19:11;102327.66;;;18.82;11.35
64698;BME280;51124;53.394;-6.294;2023-03-03T04:21:39;102332.07;;;18.73;11.25
64698;BME280;51124;53.394;-6.294;2023-03-03T04:24:07;102334.11;;;18.38;11.28
64698;BME280;51124;53.394;-6.294;2023-03-03T04:26:36;102337.25;;;18.51;11.48
64698;BME280;51124;53.394;-6.294;2023-03-03T04:29:04;102335.48;;;19.23;11.22
64698;BME280;51124;53.394;-6.294;2023-03-03T04:31:32;102334.71;;;18.33;11.47
64698;BME280;51124;53.394;-6.294;2023-03-03T04:34:00;102333.74;;;19.05;11.14
64698;BME280;51124;53.394;-6.294;2023-03-03T04:36:28;102334.25;;;16.92;11.28
64698;BME280;51124;53.394;-6.294;2023-03-03T04:38:55;102339.45;;;16.18;10.82
64698;BME280;51124;53.394;-6.294;2023-03-03T04:41:23;102335.80;;;19.23;10.53
64698;BME280;51124;53.394;-6.294;2023-03-03T04:43:50;102338.83;;;16.66;10.79
64698;BME280;51124;53.394;-6.294;2023-03-03T04:46:18;102334.76;;;15.72;10.36
64698;BME280;51124;53.394;-6.294;2023-03-03T04:48:45;102332.78;;;16.88;10.12
64698;BME280;51124;53.394;-6.294;2023-03-03T04:51:13;102332.22;;;17.07;9.84
64698;BME280;51124;53.394;-6.294;2023-03-03T04:53:40;102335.47;;;16.68;9.64
64698;BME280;51124;53.394;-6.294;2023-03-03T04:56:08;102335.90;;;16.44;9.59
64698;BME280;51124;53.394;-6.294;2023-03-03T04:58:35;102333.35;;;16.48;9.58
64698;BME280;51124;53.394;-6.294;2023-03-03T05:01:03;102329.49;;;16.87;9.39
64698;BME280;51124;53.394;-6.294;2023-03-03T05:03:30;102332.92;;;16.61;9.48
64698;BME280;51124;53.394;-6.294;2023-03-03T05:05:58;102330.68;;;16.74;9.21
64698;BME280;51124;53.394;-6.294;2023-03-03T05:08:25;102331.41;;;16.05;9.28
64698;BME280;51124;53.394;-6.294;2023-03-03T05:10:53;102330.46;;;16.62;9.31
64698;BME280;51124;53.394;-6.294;2023-03-03T05:13:21;102330.73;;;16.42;9.22
64698;BME280;51124;53.394;-6.294;2023-03-03T05:15:53;102330.52;;;16.12;9.10
64698;BME280;51124;53.394;-6.294;2023-03-03T05:18:21;102328.14;;;16.96;8.89
64698;BME280;51124;53.394;-6.294;2023-03-03T05:20:50;102330.75;;;15.99;9.17
64698;BME280;51124;53.394;-6.294;2023-03-03T05:23:18;102331.05;;;16.30;8.93
64698;BME280;51124;53.394;-6.294;2023-03-03T05:25:46;102330.24;;;15.33;9.02
64698;BME280;51124;53.394;-6.294;2023-03-03T05:28:13;102334.37;;;16.34;8.94
64698;BME280;51124;53.394;-6.294;2023-03-03T05:30:41;102332.97;;;16.52;8.87
64698;BME280;51124;53.394;-6.294;2023-03-03T05:33:09;102333.63;;;16.30;9.04
64698;BME280;51124;53.394;-6.294;2023-03-03T05:35:39;102335.32;;;15.56;9.01
64698;BME280;51124;53.394;-6.294;2023-03-03T05:38:06;102330.55;;;15.99;8.82
64698;BME280;51124;53.394;-6.294;2023-03-03T05:40:33;102331.82;;;15.93;8.97
64698;BME280;51124;53.394;-6.294;2023-03-03T05:43:01;102333.78;;;16.05;8.98
64698;BME280;51124;53.394;-6.294;2023-03-03T05:45:28;102327.06;;;16.25;8.80
64698;BME280;51124;53.394;-6.294;2023-03-03T05:47:56;102328.57;;;15.70;8.93
64698;BME280;51124;53.394;-6.294;2023-03-03T05:50:24;102326.11;;;16.54;8.72
64698;BME280;51124;53.394;-6.294;2023-03-03T05:52:52;102324.72;;;16.05;8.78
64698;BME280;51124;53.394;-6.294;2023-03-03T05:55:19;102324.95;;;16.68;8.73
64698;BME280;51124;53.394;-6.294;2023-03-03T05:57:47;102321.81;;;16.06;8.85
64698;BME280;51124;53.394;-6.294;2023-03-03T06:00:16;102323.02;;;15.75;8.93
64698;BME280;51124;53.394;-6.294;2023-03-03T06:02:43;102321.70;;;15.96;8.92
64698;BME280;51124;53.394;-6.294;2023-03-03T06:05:11;102324.80;;;16.46;8.94
64698;BME280;51124;53.394;-6.294;2023-03-03T06:07:39;102321.61;;;16.99;8.74
64698;BME280;51124;53.394;-6.294;2023-03-03T06:10:07;102324.39;;;16.01;8.90
64698;BME280;51124;53.394;-6.294;2023-03-03T06:12:35;102324.25;;;16.50;8.91
64698;BME280;51124;53.394;-6.294;2023-03-03T06:15:03;102321.80;;;16.54;8.82
64698;BME280;51124;53.394;-6.294;2023-03-03T06:17:30;102322.63;;;16.07;8.99
64698;BME280;51124;53.394;-6.294;2023-03-03T06:19:57;102326.99;;;16.46;8.93
64698;BME280;51124;53.394;-6.294;2023-03-03T06:22:25;102328.91;;;15.97;9.08
64698;BME280;51124;53.394;-6.294;2023-03-03T06:24:52;102326.72;;;15.94;8.96
64698;BME280;51124;53.394;-6.294;2023-03-03T06:27:20;102330.50;;;15.82;9.02
64698;BME280;51124;53.394;-6.294;2023-03-03T06:29:47;102329.20;;;15.87;8.95
64698;BME280;51124;53.394;-6.294;2023-03-03T06:32:15;102331.23;;;15.90;8.81
64698;BME280;51124;53.394;-6.294;2023-03-03T06:34:42;102331.19;;;16.28;8.75
64698;BME280;51124;53.394;-6.294;2023-03-03T06:37:10;102334.81;;;18.85;8.92
64698;BME280;51124;53.394;-6.294;2023-03-03T06:39:38;102338.66;;;19.34;9.41
64698;BME280;51124;53.394;-6.294;2023-03-03T06:42:05;102340.79;;;17.47;9.95
64698;BME280;51124;53.394;-6.294;2023-03-03T06:44:33;102339.52;;;16.58;9.85
64698;BME280;51124;53.394;-6.294;2023-03-03T06:47:01;102344.06;;;19.31;9.56
64698;BME280;51124;53.394;-6.294;2023-03-03T06:49:29;102347.94;;;19.16;10.21
64698;BME280;51124;53.394;-6.294;2023-03-03T06:51:57;102349.84;;;18.94;10.45
64698;BME280;51124;53.394;-6.294;2023-03-03T06:54:29;102351.72;;;18.57;10.86
64698;BME280;51124;53.394;-6.294;2023-03-03T06:57:00;102353.01;;;19.09;10.89
64698;BME280;51124;53.394;-6.294;2023-03-03T06:59:30;102356.20;;;18.30;11.00
64698;BME280;51124;53.394;-6.294;2023-03-03T07:01:58;102356.13;;;18.33;11.09
64698;BME280;51124;53.394;-6.294;2023-03-03T07:04:30;102358.24;;;18.53;11.15
64698;BME280;51124;53.394;-6.294;2023-03-03T07:06:59;102357.93;;;19.01;11.13
64698;BME280;51124;53.394;-6.294;2023-03-03T07:09:32;102362.00;;;18.47;11.31
64698;BME280;51124;53.394;-6.294;2023-03-03T07:12:05;102363.00;;;19.16;11.09
64698;BME280;51124;53.394;-6.294;2023-03-03T07:14:27;102364.13;;;18.70;11.17
64698;BME280;51124;53.394;-6.294;2023-03-03T07:16:58;102364.10;;;18.23;11.28
64698;BME280;51124;53.394;-6.294;2023-03-03T07:19:32;102363.48;;;18.05;11.26
64698;BME280;51124;53.394;-6.294;2023-03-03T07:22:07;102363.40;;;18.80;11.23
64698;BME280;51124;53.394;-6.294;2023-03-03T07:24:29;102367.00;;;18.09;11.18
64698;BME280;51124;53.394;-6.294;2023-03-03T07:27:05;102373.26;;;18.09;11.28
64698;BME280;51124;53.394;-6.294;2023-03-03T07:29:28;102381.13;;;18.16;11.30
64698;BME280;51124;53.394;-6.294;2023-03-03T07:31:57;102381.85;;;17.73;11.28
64698;BME280;51124;53.394;-6.294;2023-03-03T07:34:29;102381.43;;;18.49;11.22
64698;BME280;51124;53.394;-6.294;2023-03-03T07:37:00;102381.89;;;18.14;11.09
64698;BME280;51124;53.394;-6.294;2023-03-03T07:39:33;102386.22;;;16.97;11.01
64698;BME280;51124;53.394;-6.294;2023-03-03T07:42:36;102387.12;;;17.87;10.45
64698;BME280;51124;53.394;-6.294;2023-03-03T07:44:36;102393.65;;;17.40;10.32
64698;BME280;51124;53.394;-6.294;2023-03-03T07:47:17;102395.04;;;17.61;10.07
64698;BME280;51124;53.394;-6.294;2023-03-03T07:49:36;102399.47;;;18.08;9.86
64698;BME280;51124;53.394;-6.294;2023-03-03T07:52:22;102397.81;;;17.41;9.67
64698;BME280;51124;53.394;-6.294;2023-03-03T07:54:34;102396.91;;;16.25;9.73
64698;BME280;51124;53.394;-6.294;2023-03-03T07:57:11;102397.90;;;16.96;9.55
64698;BME280;51124;53.394;-6.294;2023-03-03T07:59:31;102394.26;;;18.73;8.96
64698;BME280;51124;53.394;-6.294;2023-03-03T08:02:02;102393.01;;;17.86;9.04
64698;BME280;51124;53.394;-6.294;2023-03-03T08:04:40;102389.15;;;18.69;8.90
64698;BME280;51124;53.394;-6.294;2023-03-03T08:07:13;102393.93;;;18.25;8.76
64698;BME280;51124;53.394;-6.294;2023-03-03T08:09:46;102399.34;;;18.22;8.74
64698;BME280;51124;53.394;-6.294;2023-03-03T08:12:30;102398.93;;;19.01;8.72
64698;BME280;51124;53.394;-6.294;2023-03-03T08:14:39;102399.13;;;18.50;8.70
64698;BME280;51124;53.394;-6.294;2023-03-03T08:17:13;102401.17;;;17.93;8.73
64698;BME280;51124;53.394;-6.294;2023-03-03T08:19:34;102405.88;;;17.11;8.79
64698;BME280;51124;53.394;-6.294;2023-03-03T08:22:08;102405.04;;;17.11;8.79
64698;BME280;51124;53.394;-6.294;2023-03-03T08:24:28;102410.58;;;16.37;8.91
64698;BME280;51124;53.394;-6.294;2023-03-03T08:26:55;102411.85;;;17.83;8.36
64698;BME280;51124;53.394;-6.294;2023-03-03T08:29:23;102415.04;;;18.67;8.22
64698;BME280;51124;53.394;-6.294;2023-03-03T08:31:50;102416.04;;;18.02;7.97
64698;BME280;51124;53.394;-6.294;2023-03-03T08:34:18;102418.61;;;17.66;7.99
64698;BME280;51124;53.394;-6.294;2023-03-03T08:36:45;102420.39;;;17.36;8.06
64698;BME280;51124;53.394;-6.294;2023-03-03T08:39:12;102422.04;;;17.85;8.01
64698;BME280;51124;53.394;-6.294;2023-03-03T08:41:40;102422.05;;;19.26;7.93
64698;BME280;51124;53.394;-6.294;2023-03-03T08:44:07;102423.50;;;17.97;7.96
64698;BME280;51124;53.394;-6.294;2023-03-03T08:46:35;102428.91;;;17.43;8.16
64698;BME280;51124;53.394;-6.294;2023-03-03T08:49:03;102429.42;;;17.49;8.16
64698;BME280;51124;53.394;-6.294;2023-03-03T08:51:30;102433.84;;;18.08;8.19
64698;BME280;51124;53.394;-6.294;2023-03-03T08:53:57;102435.32;;;17.58;8.15
64698;BME280;51124;53.394;-6.294;2023-03-03T08:56:25;102436.59;;;16.75;8.22
64698;BME280;51124;53.394;-6.294;2023-03-03T08:58:52;102434.03;;;17.62;8.23
64698;BME280;51124;53.394;-6.294;2023-03-03T09:01:19;102429.70;;;17.33;8.03
64698;BME280;51124;53.394;-6.294;2023-03-03T09:03:47;102436.77;;;18.00;8.14
64698;BME280;51124;53.394;-6.294;2023-03-03T09:06:15;102436.59;;;16.93;8.23
64698;BME280;51124;53.394;-6.294;2023-03-03T09:08:42;102438.88;;;17.61;8.25
64698;BME280;51124;53.394;-6.294;2023-03-03T09:11:11;102442.31;;;17.88;8.48
64698;BME280;51124;53.394;-6.294;2023-03-03T09:13:39;102444.90;;;16.95;8.54
64698;BME280;51124;53.394;-6.294;2023-03-03T09:16:12;102445.89;;;17.02;8.49
64698;BME280;51124;53.394;-6.294;2023-03-03T09:18:40;102446.22;;;16.92;8.44
64698;BME280;51124;53.394;-6.294;2023-03-03T09:21:20;102448.82;;;17.20;8.42
64698;BME280;51124;53.394;-6.294;2023-03-03T09:23:39;102453.27;;;17.02;8.60
64698;BME280;51124;53.394;-6.294;2023-03-03T09:26:26;102453.73;;;17.08;8.45
64698;BME280;51124;53.394;-6.294;2023-03-03T09:28:34;102457.01;;;17.28;8.52
64698;BME280;51124;53.394;-6.294;2023-03-03T09:31:02;102459.14;;;16.88;8.41
64698;BME280;51124;53.394;-6.294;2023-03-03T09:33:39;102459.47;;;17.05;8.43
64698;BME280;51124;53.394;-6.294;2023-03-03T09:36:10;102457.35;;;17.22;8.34
64698;BME280;51124;53.394;-6.294;2023-03-03T09:38:31;102462.09;;;17.34;8.24
64698;BME280;51124;53.394;-6.294;2023-03-03T09:41:23;102466.47;;;20.01;8.75
64698;BME280;51124;53.394;-6.294;2023-03-03T09:43:40;102477.65;;;19.43;9.28
64698;BME280;51124;53.394;-6.294;2023-03-03T09:46:06;102481.07;;;17.19;9.59
64698;BME280;51124;53.394;-6.294;2023-03-03T09:48:43;102481.22;;;18.02;9.32
64698;BME280;51124;53.394;-6.294;2023-03-03T09:51:04;102486.36;;;19.75;9.49
64698;BME280;51124;53.394;-6.294;2023-03-03T09:53:40;102487.92;;;20.05;9.81
64698;BME280;51124;53.394;-6.294;2023-03-03T09:56:06;102491.79;;;19.72;10.21
64698;BME280;51124;53.394;-6.294;2023-03-03T09:58:46;102490.43;;;19.39;10.40
64698;BME280;51124;53.394;-6.294;2023-03-03T10:01:21;102491.18;;;19.65;10.37
64698;BME280;51124;53.394;-6.294;2023-03-03T10:03:51;102487.43;;;19.55;10.46
64698;BME280;51124;53.394;-6.294;2023-03-03T10:06:08;102487.77;;;19.52;10.48
64698;BME280;51124;53.394;-6.294;2023-03-03T10:08:41;102488.53;;;19.40;10.57
64698;BME280;51124;53.394;-6.294;2023-03-03T10:11:01;102490.10;;;19.60;10.65
64698;BME280;51124;53.394;-6.294;2023-03-03T10:13:29;102489.46;;;19.25;10.63
64698;BME280;51124;53.394;-6.294;2023-03-03T10:15:54;102491.13;;;19.72;10.65
64698;BME280;51124;53.394;-6.294;2023-03-03T10:18:27;102495.50;;;18.83;10.67
64698;BME280;51124;53.394;-6.294;2023-03-03T10:20:53;102496.67;;;19.07;10.73
64698;BME280;51124;53.394;-6.294;2023-03-03T10:23:20;102499.69;;;19.53;10.65
64698;BME280;51124;53.394;-6.294;2023-03-03T10:25:42;102500.19;;;19.38;10.57
64698;BME280;51124;53.394;-6.294;2023-03-03T10:28:28;102502.07;;;19.57;10.64
64698;BME280;51124;53.394;-6.294;2023-03-03T10:30:53;102502.55;;;19.04;10.75
64698;BME280;51124;53.394;-6.294;2023-03-03T10:33:19;102503.30;;;19.43;10.67
64698;BME280;51124;53.394;-6.294;2023-03-03T10:35:46;102506.33;;;18.97;10.78
64698;BME280;51124;53.394;-6.294;2023-03-03T10:38:21;102510.36;;;19.24;10.60
64698;BME280;51124;53.394;-6.294;2023-03-03T10:40:49;102512.26;;;19.26;10.58
64698;BME280;51124;53.394;-6.294;2023-03-03T10:43:21;102511.97;;;17.46;10.56
64698;BME280;51124;53.394;-6.294;2023-03-03T10:45:52;102510.76;;;16.88;10.28
64698;BME280;51124;53.394;-6.294;2023-03-03T10:48:24;102514.03;;;17.31;9.84
64698;BME280;51124;53.394;-6.294;2023-03-03T10:50:53;102515.79;;;17.47;9.63
64698;BME280;51124;53.394;-6.294;2023-03-03T10:53:21;102519.32;;;17.51;9.52
64698;BME280;51124;53.394;-6.294;2023-03-03T10:55:52;102521.17;;;15.94;9.46
64698;BME280;51124;53.394;-6.294;2023-03-03T10:58:25;102521.30;;;16.72;9.32
64698;BME280;51124;53.394;-6.294;2023-03-03T11:00:48;102515.59;;;17.25;9.10
64698;BME280;51124;53.394;-6.294;2023-03-03T11:03:45;102522.35;;;17.20;9.09
64698;BME280;51124;53.394;-6.294;2023-03-03T11:05:50;102524.82;;;17.00;9.09
64698;BME280;51124;53.394;-6.294;2023-03-03T11:08:23;102527.27;;;17.25;9.03
64698;BME280;51124;53.394;-6.294;2023-03-03T11:10:59;102528.92;;;16.20;8.91
64698;BME280;51124;53.394;-6.294;2023-03-03T11:13:27;102524.36;;;17.96;8.69
64698;BME280;51124;53.394;-6.294;2023-03-03T11:15:59;102524.84;;;16.57;8.80
64698;BME280;51124;53.394;-6.294;2023-03-03T11:18:31;102527.78;;;15.57;8.87
64698;BME280;51124;53.394;-6.294;2023-03-03T11:20:55;102527.49;;;16.86;8.63
64698;BME280;51124;53.394;-6.294;2023-03-03T11:23:54;102528.61;;;16.20;8.67
64698;BME280;51124;53.394;-6.294;2023-03-03T11:25:59;102524.55;;;16.89;8.55
64698;BME280;51124;53.394;-6.294;2023-03-03T11:28:30;102529.65;;;16.46;8.57
64698;BME280;51124;53.394;-6.294;2023-03-03T11:30:55;102527.18;;;16.89;8.40
64698;BME280;51124;53.394;-6.294;2023-03-03T11:33:21;102530.25;;;17.62;8.30
64698;BME280;51124;53.394;-6.294;2023-03-03T11:35:53;102527.03;;;17.99;8.16
64698;BME280;51124;53.394;-6.294;2023-03-03T11:38:39;102534.67;;;16.82;8.51
64698;BME280;51124;53.394;-6.294;2023-03-03T11:40:48;102532.69;;;17.26;8.34
64698;BME280;51124;53.394;-6.294;2023-03-03T11:43:19;102535.95;;;16.55;8.45
64698;BME280;51124;53.394;-6.294;2023-03-03T11:45:49;102536.74;;;16.78;8.47
64698;BME280;51124;53.394;-6.294;2023-03-03T11:48:21;102536.02;;;16.89;8.36
64698;BME280;51124;53.394;-6.294;2023-03-03T11:50:57;102546.37;;;15.79;8.58
64698;BME280;51124;53.394;-6.294;2023-03-03T11:53:43;102543.56;;;16.31;8.44
64698;BME280;51124;53.394;-6.294;2023-03-03T11:55:58;102546.68;;;17.38;8.41
64698;BME280;51124;53.394;-6.294;2023-03-03T11:58:23;102552.56;;;16.08;8.56
64698;BME280;51124;53.394;-6.294;2023-03-03T12:00:53;102550.31;;;16.40;8.57
64698;BME280;51124;53.394;-6.294;2023-03-03T12:03:30;102551.36;;;16.51;8.62
64698;BME280;51124;53.394;-6.294;2023-03-03T12:05:55;102550.32;;;16.38;8.56
64698;BME280;51124;53.394;-6.294;2023-03-03T12:08:35;102550.63;;;16.90;8.64
64698;BME280;51124;53.394;-6.294;2023-03-03T12:10:52;102550.84;;;16.00;8.64
64698;BME280;51124;53.394;-6.294;2023-03-03T12:13:21;102547.93;;;16.66;8.56
64698;BME280;51124;53.394;-6.294;2023-03-03T12:15:44;102547.24;;;17.31;8.82
64698;BME280;51124;53.394;-6.294;2023-03-03T12:18:27;102548.60;;;16.65;8.70
64698;BME280;51124;53.394;-6.294;2023-03-03T12:20:44;102547.61;;;16.04;8.66
64698;BME280;51124;53.394;-6.294;2023-03-03T12:23:17;102548.84;;;16.81;8.69
64698;BME280;51124;53.394;-6.294;2023-03-03T12:25:41;102549.84;;;15.71;8.64
64698;BME280;51124;53.394;-6.294;2023-03-03T12:28:14;102548.40;;;16.76;8.65
64698;BME280;51124;53.394;-6.294;2023-03-03T12:31:31;102543.88;;;17.43;8.49
64698;BME280;51124;53.394;-6.294;2023-03-03T12:33:54;102541.82;;;16.85;8.50
64698;BME280;51124;53.394;-6.294;2023-03-03T12:36:57;102539.71;;;16.84;8.37
64698;BME280;51124;53.394;-6.294;2023-03-03T12:38:58;102543.14;;;16.14;8.44
64698;BME280;51124;53.394;-6.294;2023-03-03T12:41:34;102542.54;;;16.36;8.55
64698;BME280;51124;53.394;-6.294;2023-03-03T12:44:13;102542.25;;;18.55;8.57
64698;BME280;51124;53.394;-6.294;2023-03-03T12:46:43;102543.86;;;18.75;8.95
64698;BME280;51124;53.394;-6.294;2023-03-03T12:49:01;102544.62;;;18.45;9.36
64698;BME280;51124;53.394;-6.294;2023-03-03T12:51:37;102543.14;;;18.18;9.36
64698;BME280;51124;53.394;-6.294;2023-03-03T12:54:43;102540.43;;;15.90;9.34
64698;BME280;51124;53.394;-6.294;2023-03-03T12:56:28;102538.46;;;20.38;9.39